createdAt,value
2022-10-29T00:00:56.393Z,19.55
2022-10-29T00:03:25.859Z,16.23
2022-10-29T00:05:58.910Z,25.83
2022-10-29T00:08:26.658Z,21.35
2022-10-29T00:10:53.776Z,21.55
2022-10-29T00:13:21.524Z,20.80
2022-10-29T00:15:48.550Z,15.32
2022-10-29T00:18:15.561Z,18.83
2022-10-29T00:20:42.461Z,23.48
2022-10-29T00:23:09.432Z,15.10
2022-10-29T00:25:36.681Z,15.27
2022-10-29T00:28:04.155Z,17.00
2022-10-29T00:30:31.281Z,17.15
2022-10-29T00:32:58.375Z,19.95
2022-10-29T00:35:26.307Z,17.13
2022-10-29T00:37:53.551Z,16.08
2022-10-29T00:40:21.573Z,14.82
2022-10-29T00:42:48.856Z,25.23
2022-10-29T00:45:20.994Z,21.08
2022-10-29T00:47:52.274Z,19.58
2022-10-29T00:50:22.589Z,17.48
2022-10-29T00:52:51.821Z,15.95
2022-10-29T00:55:20.594Z,15.80
2022-10-29T00:57:51.809Z,18.25
2022-10-29T01:00:19.772Z,24.17
2022-10-29T01:02:48.119Z,18.10
2022-10-29T01:05:20.254Z,19.15
2022-10-29T01:07:47.994Z,15.05
2022-10-29T01:10:17.151Z,16.70
2022-10-29T01:12:59.246Z,15.90
2022-10-29T01:15:50.229Z,19.40
2022-10-29T01:19:00.496Z,16.50
2022-10-29T01:21:44.327Z,14.52
2022-10-29T01:24:39.004Z,14.55
2022-10-29T01:27:40.025Z,17.00
2022-10-29T01:30:21.704Z,14.32
2022-10-29T01:33:14.197Z,19.40
2022-10-29T01:35:44.235Z,13.77
2022-10-29T01:38:53.403Z,17.85
2022-10-29T01:41:32.035Z,27.77
2022-10-29T01:44:07.869Z,22.80
2022-10-29T01:46:49.932Z,27.17
2022-10-29T01:49:23.103Z,21.08
2022-10-29T01:51:51.340Z,21.60
2022-10-29T01:54:18.486Z,20.45
2022-10-29T01:56:57.329Z,18.92
2022-10-29T01:59:36.160Z,25.55
2022-10-29T02:02:24.137Z,30.63
2022-10-29T02:05:01.186Z,21.75
2022-10-29T02:07:51.610Z,29.38
2022-10-29T02:10:54.442Z,22.83
2022-10-29T02:13:28.733Z,19.25
2022-10-29T02:15:57.321Z,19.10
2022-10-29T02:18:25.300Z,22.17
2022-10-29T02:20:54.245Z,22.33
2022-10-29T02:23:21.243Z,22.40
2022-10-29T02:25:48.274Z,25.70
2022-10-29T02:28:15.601Z,22.40
2022-10-29T02:30:42.955Z,22.85
2022-10-29T02:33:10.050Z,27.50
2022-10-29T02:35:37.182Z,24.27
2022-10-29T02:38:04.277Z,22.38
2022-10-29T02:40:34.482Z,19.52
2022-10-29T02:43:01.593Z,28.42
2022-10-29T02:45:28.486Z,26.55
2022-10-29T02:47:55.889Z,26.13
2022-10-29T02:50:23.141Z,26.65
2022-10-29T02:52:50.043Z,33.38
2022-10-29T02:55:17.018Z,23.33
2022-10-29T02:57:45.078Z,25.52
2022-10-29T03:00:13.215Z,27.45
2022-10-29T03:02:41.280Z,21.45
2022-10-29T03:05:08.649Z,23.38
2022-10-29T03:07:37.863Z,22.02
2022-10-29T03:10:06.983Z,23.98
2022-10-29T03:12:34.794Z,21.08
2022-10-29T03:15:02.047Z,29.85
2022-10-29T03:17:30.267Z,26.42
2022-10-29T03:19:57.614Z,23.67
2022-10-29T03:22:24.829Z,26.30
2022-10-29T03:24:51.864Z,28.83
2022-10-29T03:27:18.784Z,28.85
2022-10-29T03:29:45.898Z,29.40
2022-10-29T03:32:12.938Z,29.08
2022-10-29T03:34:40.402Z,30.63
2022-10-29T03:37:07.432Z,32.78
2022-10-29T03:39:34.496Z,31.38
2022-10-29T03:42:01.362Z,31.20
2022-10-29T03:44:28.275Z,28.92
2022-10-29T03:46:55.173Z,33.35
2022-10-29T03:49:23.081Z,27.77
2022-10-29T03:51:50.467Z,35.20
2022-10-29T03:54:17.482Z,30.02
2022-10-29T03:56:44.339Z,30.92
2022-10-29T04:01:38.420Z,30.17
2022-10-29T04:04:05.650Z,32.97
2022-10-29T04:06:32.874Z,30.95
2022-10-29T04:09:00.253Z,28.50
2022-10-29T04:11:27.756Z,25.73
2022-10-29T04:13:55.183Z,29.10
2022-10-29T04:16:22.643Z,35.75
2022-10-29T04:18:51.156Z,35.15
2022-10-29T04:28:17.473Z,34.20
2022-10-29T04:29:40.634Z,33.72
2022-10-29T04:32:07.925Z,48.45
2022-10-29T04:34:37.451Z,43.53
2022-10-29T04:37:04.518Z,39.05
2022-10-29T04:39:31.618Z,38.38
2022-10-29T04:41:58.695Z,40.13
2022-10-29T04:44:26.105Z,35.08
2022-10-29T04:46:53.221Z,42.50
2022-10-29T04:49:20.258Z,42.30
2022-10-29T04:51:47.377Z,37.92
2022-10-29T04:54:16.652Z,38.80
2022-10-29T04:56:55.436Z,35.95
2022-10-29T04:59:23.988Z,42.50
2022-10-29T05:01:50.988Z,36.85
2022-10-29T05:04:18.175Z,39.35
2022-10-29T05:06:45.159Z,36.40
2022-10-29T05:09:13.124Z,38.53
2022-10-29T05:11:40.907Z,33.08
2022-10-29T05:14:08.664Z,40.35
2022-10-29T05:16:36.308Z,37.63
2022-10-29T05:19:05.086Z,40.70
2022-10-29T05:21:33.213Z,34.72
2022-10-29T05:24:01.375Z,43.70
2022-10-29T05:26:32.555Z,39.75
2022-10-29T05:28:59.658Z,37.13
2022-10-29T05:31:26.681Z,43.47
2022-10-29T05:33:55.628Z,35.20
2022-10-29T05:36:24.096Z,41.30
2022-10-29T05:38:51.106Z,42.03
2022-10-29T05:41:27.180Z,34.90
2022-10-29T05:43:54.398Z,40.25
2022-10-29T05:46:21.320Z,45.05
2022-10-29T05:48:49.114Z,36.78
2022-10-29T05:51:16.602Z,32.20
2022-10-29T05:53:43.854Z,43.50
2022-10-29T05:56:10.905Z,35.45
2022-10-29T05:58:39.017Z,36.35
2022-10-29T06:01:10.544Z,34.05
2022-10-29T06:03:40.662Z,34.85
2022-10-29T06:06:08.657Z,34.38
2022-10-29T06:08:36.268Z,33.67
2022-10-29T06:11:04.435Z,37.00
2022-10-29T06:13:36.856Z,34.72
2022-10-29T06:16:04.985Z,37.47
2022-10-29T06:18:41.861Z,34.92
2022-10-29T06:21:09.450Z,28.38
2022-10-29T06:23:37.153Z,33.38
2022-10-29T06:26:04.243Z,27.90
2022-10-29T06:28:33.654Z,37.65
2022-10-29T06:31:01.854Z,26.60
2022-10-29T06:33:28.862Z,25.98
2022-10-29T06:36:02.268Z,26.85
2022-10-29T06:38:30.657Z,31.17
2022-10-29T06:40:59.517Z,28.15
2022-10-29T06:43:31.282Z,29.63
2022-10-29T06:46:14.716Z,26.00
2022-10-29T06:48:44.816Z,29.42
2022-10-29T06:51:11.850Z,26.55
2022-10-29T06:53:39.110Z,30.45
2022-10-29T06:56:06.278Z,29.25
2022-10-29T06:58:33.446Z,29.05
2022-10-29T07:01:01.673Z,27.48
2022-10-29T07:03:28.697Z,34.70
2022-10-29T07:05:57.732Z,25.73
2022-10-29T07:08:25.326Z,29.67
2022-10-29T07:10:53.676Z,31.02
2022-10-29T07:13:21.116Z,33.65
2022-10-29T07:15:48.153Z,26.10
2022-10-29T07:18:16.172Z,31.67
2022-10-29T07:20:45.643Z,31.75
2022-10-29T07:23:13.670Z,32.22
2022-10-29T07:25:41.621Z,31.70
2022-10-29T07:28:23.242Z,35.90
2022-10-29T07:30:53.811Z,37.08
2022-10-29T07:33:20.950Z,39.03
2022-10-29T07:35:51.004Z,32.30
2022-10-29T07:38:17.804Z,27.98
2022-10-29T07:40:50.442Z,32.00
2022-10-29T07:43:18.715Z,27.77
2022-10-29T07:45:46.792Z,30.23
2022-10-29T07:48:13.911Z,32.83
2022-10-29T07:50:41.992Z,33.08
2022-10-29T07:53:10.097Z,27.60
2022-10-29T07:55:37.569Z,30.08
2022-10-29T07:58:07.039Z,32.85
2022-10-29T08:00:37.070Z,29.65
2022-10-29T08:03:04.769Z,37.88
2022-10-29T08:05:32.303Z,36.35
2022-10-29T08:07:59.936Z,35.60
2022-10-29T08:10:27.809Z,29.02
2022-10-29T08:12:58.223Z,27.45
2022-10-29T08:15:27.215Z,31.75
2022-10-29T08:17:54.835Z,29.25
2022-10-29T08:20:22.979Z,34.67
2022-10-29T08:22:50.302Z,28.27
2022-10-29T08:25:17.955Z,28.00
2022-10-29T08:27:45.158Z,30.73
2022-10-29T08:30:14.277Z,31.67
2022-10-29T08:32:47.844Z,29.33
2022-10-29T08:35:15.287Z,31.58
2022-10-29T08:37:46.000Z,26.98
2022-10-29T08:40:35.078Z,29.67
2022-10-29T08:43:20.850Z,26.95
2022-10-29T08:45:51.011Z,28.17
2022-10-29T08:48:39.942Z,25.73
2022-10-29T08:51:10.169Z,23.70
2022-10-29T08:53:45.437Z,29.08
2022-10-29T08:56:22.120Z,27.50
2022-10-29T08:59:12.035Z,30.52
2022-10-29T09:01:38.946Z,29.38
2022-10-29T09:04:28.467Z,34.17
2022-10-29T09:06:58.202Z,31.13
2022-10-29T09:09:28.885Z,26.75
2022-10-29T09:12:17.069Z,25.75
2022-10-29T09:14:53.052Z,34.35
2022-10-29T09:17:46.178Z,31.00
2022-10-29T09:20:41.186Z,28.33
2022-10-29T09:23:22.978Z,35.43
2022-10-29T09:26:21.730Z,27.20
2022-10-29T09:29:26.225Z,25.30
2022-10-29T09:32:02.099Z,28.92
2022-10-29T09:34:30.957Z,27.55
2022-10-29T09:36:58.837Z,32.03
2022-10-29T09:39:35.400Z,28.48
2022-10-29T09:42:03.217Z,30.88
2022-10-29T09:44:55.986Z,27.95
2022-10-29T09:47:34.338Z,36.85
2022-10-29T09:50:13.054Z,27.42
2022-10-29T09:52:43.602Z,26.15
2022-10-29T09:55:31.549Z,23.75
2022-10-29T09:57:58.626Z,22.20
2022-10-29T10:00:28.596Z,23.85
2022-10-29T10:03:01.863Z,22.65
2022-10-29T10:05:31.902Z,27.08
2022-10-29T10:08:11.747Z,20.10
2022-10-29T10:11:01.340Z,29.15
2022-10-29T10:13:38.519Z,22.05
2022-10-29T10:16:06.775Z,28.50
2022-10-29T10:18:33.704Z,24.08
2022-10-29T10:21:30.546Z,27.95
2022-10-29T10:23:58.600Z,22.77
2022-10-29T10:26:43.171Z,27.27
2022-10-29T10:29:11.034Z,21.47
2022-10-29T10:31:38.627Z,25.08
2022-10-29T10:34:15.345Z,21.02
2022-10-29T10:36:52.567Z,18.60
2022-10-29T10:39:25.597Z,23.35
2022-10-29T10:41:53.088Z,21.08
2022-10-29T10:44:22.377Z,18.85
2022-10-29T10:46:52.665Z,18.35
2022-10-29T10:49:39.216Z,24.42
2022-10-29T10:52:15.822Z,23.02
2022-10-29T10:54:47.592Z,19.17
2022-10-29T10:57:17.204Z,20.20
2022-10-29T11:00:10.177Z,16.85
2022-10-29T11:02:46.309Z,23.55
2022-10-29T11:05:16.400Z,17.23
2022-10-29T11:07:57.266Z,19.17
2022-10-29T11:10:33.915Z,17.75
2022-10-29T11:13:05.259Z,23.23
2022-10-29T11:15:41.137Z,21.63
2022-10-29T11:18:20.470Z,20.98
2022-10-29T11:21:17.045Z,22.17
2022-10-29T11:23:56.028Z,18.73
2022-10-29T11:26:32.415Z,22.50
2022-10-29T11:29:15.651Z,24.17
2022-10-29T11:32:09.845Z,21.00
2022-10-29T11:35:09.847Z,22.45
2022-10-29T11:38:01.706Z,17.92
2022-10-29T11:41:05.151Z,18.35
2022-10-29T11:43:34.040Z,20.38
2022-10-29T11:46:30.235Z,19.75
2022-10-29T11:49:18.415Z,25.30
2022-10-29T11:52:08.490Z,17.98
2022-10-29T11:55:10.034Z,19.85
2022-10-29T11:57:47.327Z,20.30
2022-10-29T12:00:23.912Z,19.13
2022-10-29T12:02:54.080Z,20.45
2022-10-29T12:05:59.655Z,17.25
2022-10-29T12:08:44.911Z,16.43
2022-10-29T12:11:22.528Z,20.08
2022-10-29T12:13:54.893Z,21.42
2022-10-29T12:16:31.014Z,16.13
2022-10-29T12:19:00.984Z,19.70
2022-10-29T12:21:31.063Z,23.70
2022-10-29T12:24:24.739Z,21.00
2022-10-29T12:26:59.088Z,20.65
2022-10-29T12:29:50.726Z,11.23
2022-10-29T12:32:28.773Z,20.60
2022-10-29T12:34:55.669Z,17.95
2022-10-29T12:37:34.706Z,13.20
2022-10-29T12:40:26.230Z,13.32
2022-10-29T12:42:55.057Z,17.75
2022-10-29T12:46:06.477Z,15.77
2022-10-29T12:49:16.777Z,15.52
2022-10-29T12:52:03.244Z,16.80
2022-10-29T12:54:42.175Z,13.63
2022-10-29T12:57:15.722Z,13.95
2022-10-29T12:59:45.011Z,18.92
2022-10-29T13:02:27.367Z,15.20
2022-10-29T13:05:09.819Z,18.45
2022-10-29T13:07:46.126Z,20.58
2022-10-29T13:10:31.450Z,18.90
2022-10-29T13:13:16.978Z,19.45
